Time;durP1;ratioP1;P1;durP2;ratioP2;P2;SDS_P1;SDS_P2;PMS_P1;PMS_P2;Temp;Humidity;BMP_temperature;BMP_pressure;BME280_temperature;BME280_humidity;BME280_pressure;Samples;Min_cycle;Max_cycle;Signal;HPM_P1;HPM_P2
2023/06/11 00:00:24;;;;;;;8.13;7.47;;;18.20;99.90;;;;;;5001325;28;20203;-76
2023/06/11 00:02:54;;;;;;;7.70;7.10;;;18.10;99.90;;;;;;5001623;28;20217;-77
2023/06/11 00:05:21;;;;;;;7.70;7.10;;;18.10;99.90;;;;;;5006505;28;20719;-76
2023/06/11 00:07:49;;;;;;;7.73;7.13;;;18.20;99.90;;;;;;5000334;28;20199;-77
2023/06/11 00:10:16;;;;;;;8.00;7.30;;;18.20;99.90;;;;;;4998804;28;20200;-77
2023/06/11 00:12:43;;;;;;;7.23;6.63;;;18.20;99.90;;;;;;5000313;28;20225;-76
2023/06/11 00:15:10;;;;;;;7.73;7.07;;;18.20;99.90;;;;;;5002401;28;20212;-76
2023/06/11 00:17:38;;;;;;;8.10;7.40;;;18.10;99.90;;;;;;5003244;28;20228;-76
2023/06/11 00:20:11;;;;;;;7.97;7.17;;;18.00;99.90;;;;;;4998727;28;20658;-77
2023/06/11 00:22:39;;;;;;;8.27;7.57;;;18.00;99.90;;;;;;4998805;28;20191;-76
2023/06/11 00:25:07;;;;;;;8.10;7.40;;;18.00;99.90;;;;;;5006269;28;20225;-76
2023/06/11 00:27:34;;;;;;;7.63;7.03;;;18.00;99.90;;;;;;4998335;28;20203;-77
2023/06/11 00:30:04;;;;;;;8.13;7.40;;;18.00;99.90;;;;;;4996064;28;20195;-77
2023/06/11 00:32:31;;;;;;;8.90;8.20;;;18.00;99.90;;;;;;5001112;28;20707;-76
2023/06/11 00:35:01;;;;;;;10.20;9.20;;;18.10;99.90;;;;;;5001015;28;20213;-76
2023/06/11 00:37:30;;;;;;;9.03;8.27;;;18.20;99.90;;;;;;4996593;28;20200;-77
2023/06/11 00:39:57;;;;;;;6.90;6.13;;;18.20;99.90;;;;;;4997762;28;20199;-76
2023/06/11 00:42:24;;;;;;;6.57;5.87;;;18.20;99.90;;;;;;4999398;28;20194;-76
2023/06/11 00:44:52;;;;;;;6.40;5.80;;;18.30;99.90;;;;;;4999180;28;20208;-76
2023/06/11 00:47:19;;;;;;;6.67;5.73;;;18.30;99.90;;;;;;4995322;28;20206;-76
2023/06/11 00:49:46;;;;;;;6.67;6.07;;;18.30;99.90;;;;;;4998302;28;20210;-77
2023/06/11 00:52:18;;;;;;;7.90;5.77;;;18.30;99.90;;;;;;5002418;28;20761;-76
2023/06/11 00:54:45;;;;;;;5.93;5.33;;;18.20;99.90;;;;;;4997479;28;20638;-76
2023/06/11 00:57:12;;;;;;;5.83;5.13;;;18.20;99.90;;;;;;4997305;28;20228;-76
2023/06/11 00:59:40;;;;;;;5.83;5.23;;;18.20;99.90;;;;;;4999503;28;20205;-77
2023/06/11 01:02:15;;;;;;;6.43;5.80;;;18.10;99.90;;;;;;4999226;28;20209;-76
2023/06/11 01:04:42;;;;;;;6.47;5.80;;;18.00;99.90;;;;;;5008393;28;20213;-77
2023/06/11 01:07:13;;;;;;;6.17;5.57;;;18.00;99.90;;;;;;5004367;28;20241;-77
2023/06/11 01:09:42;;;;;;;6.87;5.23;;;17.90;99.90;;;;;;5012792;28;20257;-76
2023/06/11 01:12:10;;;;;;;6.97;6.13;;;17.90;99.90;;;;;;5011969;28;20202;-77
2023/06/11 01:14:38;;;;;;;6.00;5.43;;;17.90;99.90;;;;;;4999037;28;20269;-76
2023/06/11 01:17:15;;;;;;;6.70;6.00;;;17.80;99.90;;;;;;4997369;28;20205;-77
2023/06/11 01:19:58;;;;;;;6.60;5.93;;;17.80;99.90;;;;;;4998114;28;20202;-76
2023/06/11 01:22:33;;;;;;;6.47;5.50;;;17.70;99.90;;;;;;5001491;28;20284;-77
2023/06/11 01:25:18;;;;;;;6.23;5.63;;;17.70;99.90;;;;;;5001493;28;20204;-77
2023/06/11 01:28:07;;;;;;;7.67;6.97;;;17.70;99.90;;;;;;5003287;28;20201;-77
2023/06/11 01:30:37;;;;;;;5.90;5.30;;;17.60;99.90;;;;;;5014552;28;20204;-77
2023/06/11 01:33:08;;;;;;;8.67;7.93;;;17.60;99.90;;;;;;5001197;28;20227;-77
2023/06/11 01:35:39;;;;;;;8.87;8.10;;;17.50;99.90;;;;;;5005790;28;20252;-77
2023/06/11 01:38:08;;;;;;;9.07;8.27;;;17.40;99.90;;;;;;4997834;28;20247;-77
2023/06/11 01:40:42;;;;;;;7.80;6.67;;;17.40;99.90;;;;;;5001902;28;20259;-78
2023/06/11 01:43:11;;;;;;;9.67;8.87;;;17.30;99.90;;;;;;5002199;28;20251;-77
2023/06/11 01:45:38;;;;;;;5.90;5.40;;;17.30;99.90;;;;;;5004360;28;20276;-77
2023/06/11 01:48:06;;;;;;;6.53;5.93;;;17.30;99.90;;;;;;5010835;28;20197;-78
2023/06/11 01:50:34;;;;;;;9.87;9.07;;;17.20;99.90;;;;;;5000149;28;20197;-77
2023/06/11 01:53:01;;;;;;;9.37;8.57;;;17.20;99.90;;;;;;5001088;28;20232;-77
2023/06/11 01:55:29;;;;;;;9.50;8.60;;;17.20;99.90;;;;;;4998726;28;20284;-77
2023/06/11 01:57:56;;;;;;;10.90;9.87;;;17.10;99.90;;;;;;4999208;28;20198;-78
2023/06/11 02:00:24;;;;;;;10.73;9.73;;;17.10;99.90;;;;;;5003878;28;20204;-77
2023/06/11 02:02:51;;;;;;;8.03;6.47;;;17.10;99.90;;;;;;5003695;28;20216;-77
2023/06/11 02:05:18;;;;;;;6.90;6.20;;;17.00;99.90;;;;;;5002080;28;20331;-77
2023/06/11 02:07:46;;;;;;;11.53;10.63;;;17.00;99.90;;;;;;5006231;28;20202;-80
2023/06/11 02:10:12;;;;;;;7.57;6.83;;;16.90;99.90;;;;;;5002907;28;20691;-79
2023/06/11 02:12:39;;;;;;;6.93;6.20;;;16.90;99.90;;;;;;5001795;28;20577;-77
2023/06/11 02:15:08;;;;;;;7.60;6.80;;;16.90;99.90;;;;;;4998146;28;20326;-75
2023/06/11 02:17:36;;;;;;;8.27;7.43;;;16.90;99.90;;;;;;4999775;28;20201;-76
2023/06/11 02:20:05;;;;;;;7.50;6.47;;;16.80;99.90;;;;;;4995969;28;20194;-77
2023/06/11 02:22:33;;;;;;;9.87;9.07;;;16.80;99.90;;;;;;4997238;28;20761;-77
2023/06/11 02:25:00;;;;;;;7.47;6.63;;;16.70;99.90;;;;;;4998515;28;20657;-76
2023/06/11 02:27:27;;;;;;;8.13;6.53;;;16.70;99.90;;;;;;4998210;28;20224;-76
2023/06/11 02:29:55;;;;;;;6.97;5.93;;;16.70;99.90;;;;;;5004136;28;20262;-76
2023/06/11 02:32:22;;;;;;;7.10;6.40;;;16.60;99.90;;;;;;5000672;28;20228;-76
2023/06/11 02:34:50;;;;;;;7.83;6.40;;;16.60;99.90;;;;;;4999537;28;20225;-76
2023/06/11 02:37:17;;;;;;;7.10;6.40;;;16.60;99.90;;;;;;4998154;28;20201;-76
2023/06/11 02:39:45;;;;;;;8.27;7.27;;;16.60;99.90;;;;;;5007320;28;20204;-76
2023/06/11 02:42:12;;;;;;;7.20;6.50;;;16.50;99.90;;;;;;5008577;28;20212;-77
2023/06/11 02:44:38;;;;;;;7.40;6.70;;;16.50;99.90;;;;;;5017679;28;20216;-77
2023/06/11 02:47:06;;;;;;;7.03;6.33;;;16.50;99.90;;;;;;5008264;28;20580;-77
2023/06/11 02:49:32;;;;;;;7.83;6.60;;;16.50;99.90;;;;;;5002604;28;20201;-76
2023/06/11 02:52:00;;;;;;;7.63;6.83;;;16.40;99.90;;;;;;5007970;28;20220;-77
2023/06/11 02:54:27;;;;;;;7.60;6.90;;;16.40;99.90;;;;;;4999015;28;20228;-77
2023/06/11 02:56:54;;;;;;;7.17;6.47;;;16.40;99.90;;;;;;5002120;28;20208;-80
2023/06/11 02:59:21;;;;;;;7.30;6.60;;;16.40;99.90;;;;;;5010740;28;20208;-77
2023/06/11 03:01:51;;;;;;;6.73;6.13;;;16.40;99.90;;;;;;4998255;28;20204;-78
2023/06/11 03:04:18;;;;;;;7.67;6.97;;;16.30;99.90;;;;;;5003668;28;20220;-77
2023/06/11 03:06:45;;;;;;;7.77;6.97;;;16.30;99.90;;;;;;5021882;28;20196;-77
2023/06/11 03:09:14;;;;;;;9.23;8.33;;;16.30;99.90;;;;;;5012555;28;20291;-75
2023/06/11 03:11:40;;;;;;;8.40;7.60;;;16.20;99.90;;;;;;5007538;28;20197;-75
2023/06/11 03:14:07;;;;;;;7.57;6.87;;;16.20;99.90;;;;;;5009865;28;20263;-74
2023/06/11 03:16:34;;;;;;;7.67;6.87;;;16.20;99.90;;;;;;5004954;28;20193;-76
2023/06/11 03:19:01;;;;;;;6.90;6.20;;;16.30;99.90;;;;;;5013384;28;20258;-77
2023/06/11 03:21:28;;;;;;;8.10;7.27;;;16.20;99.90;;;;;;5013504;28;20204;-75
2023/06/11 03:23:55;;;;;;;10.13;9.23;;;16.20;99.90;;;;;;5012251;28;20219;-74
2023/06/11 03:26:24;;;;;;;9.17;8.20;;;16.20;99.90;;;;;;5013226;28;20263;-75
2023/06/11 03:28:51;;;;;;;8.30;7.50;;;16.20;99.90;;;;;;5011193;28;20217;-79
2023/06/11 03:31:21;;;;;;;7.07;6.27;;;16.20;99.90;;;;;;5018883;28;20205;-79
2023/06/11 03:33:49;;;;;;;8.33;6.97;;;16.10;99.90;;;;;;5001825;28;20217;-77
2023/06/11 03:36:18;;;;;;;7.50;6.70;;;16.10;99.90;;;;;;5012874;28;20208;-76
2023/06/11 03:38:45;;;;;;;6.93;6.23;;;16.10;99.90;;;;;;5016415;28;20197;-79
2023/06/11 03:41:16;;;;;;;8.07;6.77;;;16.20;99.90;;;;;;5015400;28;20193;-76
2023/06/11 03:43:45;;;;;;;7.77;6.97;;;16.20;99.90;;;;;;5025357;28;20213;-76
2023/06/11 03:46:12;;;;;;;7.67;6.80;;;16.20;99.90;;;;;;5012960;28;20206;-78
2023/06/11 03:48:39;;;;;;;7.57;6.87;;;16.20;99.90;;;;;;5009291;28;20223;-77
2023/06/11 03:51:07;;;;;;;7.60;6.90;;;16.20;99.90;;;;;;5017156;28;20200;-78
2023/06/11 03:53:34;;;;;;;8.77;7.87;;;16.20;99.90;;;;;;5007038;28;20217;-77
2023/06/11 03:56:04;;;;;;;9.20;7.10;;;16.20;99.90;;;;;;5001393;28;20197;-78
2023/06/11 03:58:31;;;;;;;8.67;7.50;;;16.20;99.90;;;;;;5020442;28;20207;-80
2023/06/11 04:00:59;;;;;;;8.20;7.40;;;16.30;99.90;;;;;;5006343;28;20196;-79
2023/06/11 04:03:26;;;;;;;8.30;7.50;;;16.30;99.90;;;;;;5005703;28;20215;-78
2023/06/11 04:05:53;;;;;;;8.70;7.80;;;16.30;99.90;;;;;;5003556;28;20204;-77
2023/06/11 04:08:20;;;;;;;7.60;6.90;;;16.30;99.90;;;;;;5003857;28;20201;-79
2023/06/11 04:10:47;;;;;;;8.30;7.40;;;16.30;99.90;;;;;;5005733;28;20193;-78
2023/06/11 04:13:14;;;;;;;7.40;6.70;;;16.50;99.90;;;;;;5016579;28;20219;-81
2023/06/11 04:15:41;;;;;;;9.37;8.47;;;16.50;99.90;;;;;;5013343;28;20271;-80
2023/06/11 04:18:12;;;;;;;7.93;7.13;;;16.50;99.90;;;;;;5006689;28;20252;-80
2023/06/11 04:20:39;;;;;;;9.10;8.30;;;16.60;99.90;;;;;;5009706;28;20208;-79
2023/06/11 04:23:06;;;;;;;8.60;7.70;;;16.70;99.90;;;;;;5004037;28;20219;-75
2023/06/11 04:25:36;;;;;;;9.37;8.47;;;16.70;99.90;;;;;;5003725;28;20209;-80
2023/06/11 04:28:05;;;;;;;8.27;7.47;;;16.70;99.90;;;;;;5009404;28;20271;-77
2023/06/11 04:30:33;;;;;;;8.20;7.40;;;16.80;99.90;;;;;;5006825;28;20676;-76
2023/06/11 04:33:03;;;;;;;9.27;7.47;;;16.90;99.90;;;;;;4996178;28;20233;-76
2023/06/11 04:35:33;;;;;;;8.17;7.37;;;17.00;99.90;;;;;;4998121;28;20289;-78
2023/06/11 04:38:00;;;;;;;9.37;8.47;;;17.20;99.90;;;;;;4999340;28;20196;-78
2023/06/11 04:40:28;;;;;;;7.03;6.33;;;17.30;99.90;;;;;;5000035;28;20213;-77
2023/06/11 04:42:56;;;;;;;7.83;7.03;;;17.50;99.90;;;;;;5000854;28;20232;-77
2023/06/11 04:45:23;;;;;;;7.37;6.27;;;17.70;99.90;;;;;;5021852;28;20206;-77
2023/06/11 04:47:51;;;;;;;7.30;6.27;;;17.80;99.90;;;;;;4999948;28;20632;-77
2023/06/11 04:50:20;;;;;;;9.93;9.03;;;18.50;99.90;;;;;;5000213;28;20203;-77
2023/06/11 04:52:51;;;;;;;9.93;8.93;;;19.50;99.90;;;;;;4998663;28;20225;-77
2023/06/11 04:55:19;;;;;;;7.60;6.90;;;20.00;99.90;;;;;;4997309;28;20226;-76
2023/06/11 04:57:46;;;;;;;6.90;6.20;;;20.40;99.90;;;;;;5002079;28;20200;-76
2023/06/11 05:00:15;;;;;;;6.47;5.87;;;20.50;99.90;;;;;;4998366;28;20205;-77
2023/06/11 05:02:44;;;;;;;6.57;5.97;;;20.30;99.90;;;;;;5005625;28;20197;-77
2023/06/11 05:05:13;;;;;;;7.87;7.17;;;20.20;99.90;;;;;;5006942;28;20220;-76
2023/06/11 05:07:41;;;;;;;7.57;6.20;;;20.20;99.90;;;;;;5002825;28;20218;-76
2023/06/11 05:10:10;;;;;;;8.13;7.43;;;20.20;99.90;;;;;;5014944;28;20201;-77
2023/06/11 05:12:38;;;;;;;8.47;7.57;;;20.20;99.90;;;;;;5005825;28;20193;-77
2023/06/11 05:15:06;;;;;;;7.53;6.87;;;20.30;99.90;;;;;;5015572;28;20205;-77
2023/06/11 05:17:33;;;;;;;7.30;6.67;;;20.50;99.90;;;;;;4999930;28;20213;-77
2023/06/11 05:20:00;;;;;;;6.33;5.73;;;20.70;99.90;;;;;;5000427;28;20201;-77
2023/06/11 05:22:27;;;;;;;7.43;6.80;;;20.90;99.90;;;;;;5001303;28;20263;-76
2023/06/11 05:24:54;;;;;;;8.50;7.70;;;21.10;99.90;;;;;;4999527;28;20181;-77
2023/06/11 05:27:28;;;;;;;7.00;6.30;;;21.10;99.90;;;;;;4996454;28;20209;-77
2023/06/11 05:29:56;;;;;;;6.40;5.80;;;21.00;99.90;;;;;;5012856;28;20226;-80
2023/06/11 05:32:23;;;;;;;7.20;6.50;;;20.90;99.90;;;;;;5001396;28;20565;-77
2023/06/11 05:34:50;;;;;;;6.63;5.83;;;21.00;99.90;;;;;;4998109;28;20228;-79
2023/06/11 05:37:18;;;;;;;6.73;6.13;;;21.10;99.90;;;;;;5002994;28;20215;-80
2023/06/11 05:39:46;;;;;;;6.00;5.40;;;21.40;99.90;;;;;;5008557;28;20201;-80
2023/06/11 05:42:14;;;;;;;7.20;6.50;;;21.70;99.90;;;;;;5001184;28;20211;-79
2023/06/11 05:44:44;;;;;;;7.00;6.40;;;22.00;99.90;;;;;;5031812;28;20242;-80
2023/06/11 05:47:12;;;;;;;7.13;5.53;;;22.70;99.90;;;;;;4989446;28;20294;-79
2023/06/11 05:49:39;;;;;;;6.37;5.77;;;23.50;99.90;;;;;;5021881;28;20197;-80
2023/06/11 05:52:06;;;;;;;5.50;5.00;;;24.10;99.90;;;;;;5001007;28;20205;-80
2023/06/11 05:54:34;;;;;;;6.10;5.50;;;24.60;99.90;;;;;;5009132;28;20221;-80
2023/06/11 05:57:01;;;;;;;6.10;5.40;;;25.10;99.90;;;;;;5009797;28;20196;-78
2023/06/11 05:59:28;;;;;;;5.50;5.00;;;25.40;99.90;;;;;;5009810;28;20495;-80
2023/06/11 06:01:57;;;;;;;5.20;4.70;;;25.90;99.90;;;;;;5011136;28;20207;-80
2023/06/11 06:04:24;;;;;;;5.83;5.20;;;26.50;99.90;;;;;;5008889;28;20220;-80
2023/06/11 06:06:51;;;;;;;8.37;6.47;;;26.80;99.90;;;;;;5017752;28;20638;-80
2023/06/11 06:09:18;;;;;;;7.70;7.10;;;26.80;99.90;;;;;;5005669;28;20204;-80
2023/06/11 06:11:45;;;;;;;8.30;7.60;;;26.90;99.90;;;;;;5012626;28;20197;-80
2023/06/11 06:14:12;;;;;;;8.27;7.57;;;27.00;99.90;;;;;;5013989;28;20256;-80
2023/06/11 06:16:40;;;;;;;7.67;7.07;;;27.30;99.90;;;;;;5014180;28;20201;-78
2023/06/11 06:19:12;;;;;;;8.10;7.30;;;27.30;99.90;;;;;;5015756;28;20223;-79
2023/06/11 06:21:39;;;;;;;7.93;7.00;;;27.20;99.90;;;;;;5017716;28;20232;-79
2023/06/11 06:24:06;;;;;;;7.73;7.03;;;27.10;99.90;;;;;;5035120;28;20217;-79
2023/06/11 06:26:33;;;;;;;7.50;6.90;;;27.00;99.90;;;;;;5012210;28;22022;-79
2023/06/11 06:29:02;;;;;;;8.37;7.60;;;27.10;99.90;;;;;;5007022;28;20247;-79
2023/06/11 06:31:30;;;;;;;8.40;7.70;;;26.60;99.90;;;;;;5015532;28;20287;-79
2023/06/11 06:33:57;;;;;;;8.37;7.67;;;26.80;99.90;;;;;;5007162;28;20227;-79
2023/06/11 06:36:27;;;;;;;8.30;7.60;;;27.00;99.90;;;;;;5011272;28;20227;-79
2023/06/11 06:38:55;;;;;;;7.80;7.10;;;27.20;99.90;;;;;;5013535;28;20199;-79
2023/06/11 06:41:22;;;;;;;8.23;7.33;;;27.00;99.90;;;;;;5005291;28;20197;-80
2023/06/11 06:43:49;;;;;;;7.40;6.80;;;27.30;99.90;;;;;;5015309;28;20698;-79
2023/06/11 06:46:27;;;;;;;8.70;8.00;;;27.60;99.90;;;;;;5015310;28;20291;-78
2023/06/11 06:49:09;;;;;;;7.90;7.23;;;28.00;99.90;;;;;;5009613;28;20256;-77
2023/06/11 06:51:44;;;;;;;8.63;6.83;;;27.80;99.90;;;;;;5014966;28;20287;-80
2023/06/11 07:03:30;;;;;;;7.90;7.20;;;27.90;99.90;;;;;;4884326;29;20466;-76
2023/06/11 07:05:57;;;;;;;7.63;7.00;;;27.70;99.90;;;;;;4963544;28;20200;-75
2023/06/11 07:08:26;;;;;;;7.80;6.87;;;27.60;99.90;;;;;;4972770;28;20193;-75
2023/06/11 07:10:57;;;;;;;7.77;7.03;;;27.40;99.90;;;;;;4971895;28;20669;-78
2023/06/11 07:13:44;;;;;;;7.47;6.77;;;27.30;99.90;;;;;;4973698;28;20226;-77
2023/06/11 07:16:12;;;;;;;5.40;4.90;;;27.70;99.90;;;;;;4971244;28;20276;-75
2023/06/11 07:18:43;;;;;;;5.50;4.70;;;27.30;99.90;;;;;;4965985;28;20230;-76
2023/06/11 07:21:10;;;;;;;6.33;4.90;;;27.80;99.90;;;;;;4971240;28;20198;-75
2023/06/11 07:23:38;;;;;;;8.27;5.20;;;27.90;99.90;;;;;;4968649;28;20225;-78
2023/06/11 07:26:06;;;;;;;8.27;7.50;;;28.20;99.90;;;;;;4977479;28;20792;-75
2023/06/11 07:28:32;;;;;;;7.00;6.30;;;28.20;99.90;;;;;;4967273;28;20218;-75
2023/06/11 07:31:00;;;;;;;7.83;7.13;;;27.80;99.90;;;;;;4968749;28;20284;-75
2023/06/11 07:33:27;;;;;;;7.17;6.47;;;27.40;99.90;;;;;;4971824;28;20236;-76
2023/06/11 07:35:56;;;;;;;6.63;6.03;;;27.30;99.90;;;;;;4982041;28;20221;-76
2023/06/11 07:38:24;;;;;;;6.30;5.32;;;27.30;99.90;;;;;;4971607;28;21032;-76
2023/06/11 07:40:52;;;;;;;6.00;5.13;;;27.30;99.90;;;;;;4968625;28;20202;-76
2023/06/11 07:43:20;;;;;;;7.15;6.55;;;28.00;99.90;;;;;;4968844;28;20537;-76
2023/06/11 07:45:46;;;;;;;7.63;7.03;;;27.40;99.90;;;;;;4974004;28;20301;-76
2023/06/11 07:48:14;;;;;;;7.73;7.13;;;26.80;99.90;;;;;;4972435;28;20677;-76
2023/06/11 07:50:42;;;;;;;8.70;8.00;;;26.40;99.90;;;;;;4971375;28;20296;-76
2023/06/11 07:53:12;;;;;;;8.50;7.80;;;26.90;99.90;;;;;;4987091;28;20223;-75
2023/06/11 07:55:40;;;;;;;8.00;7.20;;;26.90;99.90;;;;;;4969187;28;20218;-76
2023/06/11 07:58:08;;;;;;;5.60;5.00;;;26.70;99.90;;;;;;4979245;28;20197;-78
2023/06/11 08:00:35;;;;;;;5.63;4.20;;;27.00;99.90;;;;;;4965731;28;20214;-75
2023/06/11 08:03:01;;;;;;;6.57;4.73;;;27.60;99.90;;;;;;4974142;28;20249;-76
2023/06/11 08:05:29;;;;;;;5.63;4.73;;;27.80;99.90;;;;;;4974058;28;20194;-76
2023/06/11 08:07:56;;;;;;;5.23;4.73;;;27.70;99.90;;;;;;4971432;28;20201;-75
2023/06/11 08:10:23;;;;;;;4.80;4.30;;;27.60;99.90;;;;;;4974227;28;20208;-76
2023/06/11 08:12:50;;;;;;;4.50;4.10;;;27.10;99.90;;;;;;4973039;28;20865;-76
2023/06/11 08:15:19;;;;;;;5.90;4.67;;;27.20;99.90;;;;;;4974148;28;20209;-76
2023/06/11 08:17:46;;;;;;;4.97;4.47;;;27.20;99.90;;;;;;4974343;28;20190;-77
2023/06/11 08:20:13;;;;;;;5.17;4.60;;;27.70;99.90;;;;;;4968440;28;20206;-76
2023/06/11 08:22:41;;;;;;;6.23;4.27;;;27.20;99.90;;;;;;4976023;28;20206;-77
2023/06/11 08:25:09;;;;;;;5.37;4.60;;;27.60;99.90;;;;;;4971302;28;20198;-76
2023/06/11 08:27:36;;;;;;;5.03;4.53;;;28.00;99.90;;;;;;4972279;28;20288;-75
2023/06/11 08:30:03;;;;;;;6.73;6.07;;;28.00;99.90;;;;;;4973264;28;20201;-76
2023/06/11 08:32:32;;;;;;;6.30;5.80;;;28.40;99.90;;;;;;4973027;28;20209;-76
2023/06/11 08:34:58;;;;;;;7.40;6.37;;;28.60;99.90;;;;;;4972139;28;20272;-75
2023/06/11 08:37:25;;;;;;;5.27;4.77;;;28.90;99.40;;;;;;4971059;28;20561;-76
2023/06/11 08:39:52;;;;;;;4.50;4.07;;;29.30;99.30;;;;;;4973044;28;20202;-75
2023/06/11 08:42:19;;;;;;;6.33;5.73;;;29.60;98.70;;;;;;4973021;28;20276;-76
2023/06/11 08:44:46;;;;;;;6.33;5.73;;;29.60;98.40;;;;;;4967444;28;20350;-76
2023/06/11 08:47:15;;;;;;;7.00;6.30;;;29.20;98.00;;;;;;4960397;28;20203;-76
2023/06/11 08:49:45;;;;;;;4.90;4.30;;;29.60;98.10;;;;;;4972164;28;20296;-76
2023/06/11 08:52:14;;;;;;;4.10;3.80;;;29.90;97.90;;;;;;4972884;28;20197;-76
2023/06/11 08:54:41;;;;;;;6.90;5.23;;;30.10;95.80;;;;;;4971436;28;20226;-81
2023/06/11 08:57:08;;;;;;;7.30;6.60;;;29.80;97.30;;;;;;4973945;28;20198;-76
2023/06/11 08:59:35;;;;;;;7.60;6.20;;;30.10;98.00;;;;;;4973058;28;20639;-79
2023/06/11 09:02:02;;;;;;;6.60;5.70;;;30.00;97.00;;;;;;4972712;28;20232;-79
2023/06/11 09:04:28;;;;;;;7.27;6.57;;;29.70;97.60;;;;;;4969061;28;20230;-79
2023/06/11 09:07:00;;;;;;;6.90;6.23;;;29.80;97.50;;;;;;4960142;28;20236;-79
2023/06/11 09:09:27;;;;;;;6.03;5.40;;;29.50;96.20;;;;;;4966252;28;20742;-78
2023/06/11 09:11:54;;;;;;;6.07;5.47;;;29.50;96.80;;;;;;4956293;28;20557;-80
2023/06/11 09:14:21;;;;;;;5.70;5.20;;;29.60;96.70;;;;;;4960193;28;20326;-79
2023/06/11 09:16:48;;;;;;;6.23;5.73;;;29.50;96.10;;;;;;4965327;28;20795;-78
2023/06/11 09:19:17;;;;;;;4.77;4.30;;;29.50;97.40;;;;;;4970385;28;20202;-78
2023/06/11 09:21:51;;;;;;;4.77;4.27;;;29.60;96.10;;;;;;4968214;28;20202;-80
2023/06/11 09:24:20;;;;;;;5.20;4.50;;;29.60;96.80;;;;;;4967214;28;20221;-81
2023/06/11 09:26:54;;;;;;;7.67;6.97;;;29.70;95.50;;;;;;4968021;28;20290;-79
2023/06/11 09:29:21;;;;;;;6.23;4.50;;;29.30;96.00;;;;;;4960016;28;20309;-78
2023/06/11 09:31:48;;;;;;;8.00;7.30;;;29.10;95.60;;;;;;4969877;28;20194;-79
2023/06/11 09:34:21;;;;;;;7.67;6.97;;;28.90;97.00;;;;;;4967482;28;20222;-81
2023/06/11 09:36:49;;;;;;;7.50;6.80;;;28.80;97.30;;;;;;4961847;28;20218;-80
2023/06/11 09:39:16;;;;;;;7.47;6.87;;;29.00;97.70;;;;;;4973169;28;20222;-79
2023/06/11 09:41:49;;;;;;;7.90;7.20;;;29.20;95.90;;;;;;4966633;28;20583;-83
2023/06/11 09:44:17;;;;;;;7.77;6.97;;;29.30;96.80;;;;;;4964645;28;20277;-77
2023/06/11 09:46:44;;;;;;;7.40;6.70;;;29.60;95.50;;;;;;4964026;28;20208;-77
2023/06/11 09:49:12;;;;;;;6.63;6.03;;;29.70;95.50;;;;;;4963877;28;20202;-76
2023/06/11 09:51:39;;;;;;;5.40;4.73;;;30.00;95.10;;;;;;4965455;28;20670;-77
2023/06/11 09:54:07;;;;;;;7.03;5.10;;;30.30;96.30;;;;;;4960337;28;20642;-77
2023/06/11 09:56:35;;;;;;;4.57;4.17;;;30.30;95.50;;;;;;4962837;28;20218;-76
2023/06/11 09:59:04;;;;;;;8.93;8.03;;;29.80;93.60;;;;;;4960668;28;20280;-76
2023/06/11 10:01:31;;;;;;;5.43;4.93;;;29.20;95.00;;;;;;4962261;28;20206;-76
2023/06/11 10:03:58;;;;;;;5.40;4.90;;;28.90;96.50;;;;;;4957867;28;20233;-77
2023/06/11 10:06:29;;;;;;;7.27;6.67;;;28.30;96.40;;;;;;4960556;28;20198;-76
2023/06/11 10:08:59;;;;;;;5.63;5.07;;;28.70;97.00;;;;;;4961390;28;20202;-76
2023/06/11 10:11:29;;;;;;;5.33;4.83;;;28.70;94.70;;;;;;4964383;28;20207;-77
2023/06/11 10:14:00;;;;;;;6.57;4.70;;;28.30;94.70;;;;;;4960739;28;20215;-76
2023/06/11 10:16:28;;;;;;;7.40;6.70;;;28.10;96.70;;;;;;4961747;28;20273;-77
2023/06/11 10:19:04;;;;;;;6.03;4.43;;;28.60;96.80;;;;;;4963637;28;20435;-77
2023/06/11 10:21:36;;;;;;;5.13;4.43;;;28.80;95.60;;;;;;4958706;28;20397;-76
2023/06/11 10:24:03;;;;;;;7.73;6.50;;;28.20;95.40;;;;;;4962079;28;20809;-77
2023/06/11 10:26:34;;;;;;;7.90;5.50;;;28.10;96.50;;;;;;4966784;28;20268;-76
2023/06/11 10:29:01;;;;;;;5.03;4.57;;;27.90;95.70;;;;;;4961042;28;20536;-77
2023/06/11 10:31:36;;;;;;;5.43;4.93;;;28.10;96.70;;;;;;4965510;28;20264;-77
2023/06/11 10:34:04;;;;;;;8.47;5.20;;;28.30;94.90;;;;;;4976030;28;20214;-77
2023/06/11 10:36:35;;;;;;;7.13;6.53;;;28.40;95.10;;;;;;4961183;28;20225;-76
2023/06/11 10:39:05;;;;;;;5.30;4.80;;;27.90;95.70;;;;;;4962024;28;20194;-76
2023/06/11 10:41:32;;;;;;;6.00;5.20;;;28.00;96.50;;;;;;4962181;28;20361;-76
2023/06/11 10:43:59;;;;;;;6.40;5.70;;;27.80;96.80;;;;;;4959801;28;20301;-76
2023/06/11 10:46:26;;;;;;;5.47;4.97;;;27.90;96.60;;;;;;4960692;28;20194;-76
2023/06/11 10:48:55;;;;;;;7.67;7.07;;;27.70;95.40;;;;;;4955646;28;20207;-76
2023/06/11 10:51:22;;;;;;;8.07;7.37;;;27.30;94.80;;;;;;4963991;28;20720;-76
2023/06/11 10:53:55;;;;;;;7.67;6.87;;;27.10;94.30;;;;;;4957731;28;20671;-76
2023/06/11 10:56:23;;;;;;;4.63;4.23;;;27.00;94.80;;;;;;4960712;28;20724;-76
2023/06/11 10:58:50;;;;;;;4.70;4.20;;;27.20;95.60;;;;;;4964045;28;20273;-76
2023/06/11 11:01:20;;;;;;;4.73;4.30;;;27.20;95.40;;;;;;4958499;28;20293;-77
2023/06/11 11:03:47;;;;;;;5.10;4.40;;;27.50;96.00;;;;;;4961516;28;20241;-77
2023/06/11 11:06:26;;;;;;;4.90;4.23;;;27.90;93.90;;;;;;4958637;28;20223;-76
2023/06/11 11:08:55;;;;;;;6.57;4.90;;;27.90;93.60;;;;;;4960854;28;20202;-77
2023/06/11 11:11:22;;;;;;;4.77;4.37;;;27.40;93.10;;;;;;4961750;28;20202;-75
2023/06/11 11:13:50;;;;;;;5.60;4.40;;;27.40;94.10;;;;;;4969551;28;20316;-76
2023/06/11 11:16:17;;;;;;;5.30;4.40;;;27.80;94.10;;;;;;4961343;28;20206;-76
2023/06/11 11:18:44;;;;;;;6.53;4.43;;;28.00;94.30;;;;;;4964580;28;20679;-77
2023/06/11 11:21:11;;;;;;;5.03;4.53;;;27.80;93.80;;;;;;4958628;28;20202;-76
2023/06/11 11:23:39;;;;;;;5.70;4.77;;;27.60;93.50;;;;;;4958253;28;20313;-76
2023/06/11 11:26:06;;;;;;;4.97;4.20;;;27.50;92.30;;;;;;4962867;28;20654;-76
2023/06/11 11:28:34;;;;;;;5.67;4.80;;;27.90;92.90;;;;;;4957742;28;20273;-77
2023/06/11 11:31:01;;;;;;;7.70;4.40;;;28.10;92.50;;;;;;4964476;28;20229;-76
2023/06/11 11:33:29;;;;;;;6.00;4.27;;;28.00;92.90;;;;;;4964422;28;20230;-76
2023/06/11 11:35:56;;;;;;;6.27;4.33;;;28.00;92.70;;;;;;4963456;28;20293;-76
2023/06/11 11:38:23;;;;;;;5.27;4.00;;;27.60;91.20;;;;;;4959966;28;20621;-76
2023/06/11 11:40:56;;;;;;;5.57;4.00;;;27.80;91.60;;;;;;4961392;28;20206;-77
2023/06/11 11:43:23;;;;;;;4.70;4.20;;;27.70;89.10;;;;;;4960044;28;20277;-76
2023/06/11 11:45:50;;;;;;;4.60;4.13;;;27.60;90.60;;;;;;4960910;28;20190;-76
2023/06/11 11:48:18;;;;;;;6.00;4.50;;;27.60;91.70;;;;;;4958146;28;20198;-76
2023/06/11 11:50:50;;;;;;;4.60;4.20;;;27.80;92.90;;;;;;4959886;28;20282;-76
2023/06/11 11:53:18;;;;;;;4.80;4.30;;;27.80;92.90;;;;;;4956342;28;20223;-77
2023/06/11 11:55:46;;;;;;;5.00;4.50;;;27.70;92.90;;;;;;4964307;28;20695;-76
2023/06/11 11:58:15;;;;;;;4.77;4.23;;;27.70;93.20;;;;;;4973880;28;20282;-77
2023/06/11 12:00:48;;;;;;;5.37;4.50;;;27.70;92.90;;;;;;4971795;28;20201;-76
2023/06/11 12:03:18;;;;;;;5.13;4.00;;;27.80;93.70;;;;;;4978549;28;20603;-76
2023/06/11 12:05:56;;;;;;;5.53;3.90;;;28.10;92.60;;;;;;4972272;28;20679;-77
2023/06/11 12:08:23;;;;;;;6.53;4.50;;;27.80;91.90;;;;;;4958075;28;20190;-76
2023/06/11 12:10:50;;;;;;;4.73;4.20;;;27.80;92.50;;;;;;4956894;28;20247;-76
2023/06/11 12:13:21;;;;;;;5.83;4.37;;;27.90;91.70;;;;;;4967776;28;20244;-79
2023/06/11 12:15:48;;;;;;;5.70;4.47;;;27.80;92.30;;;;;;4957008;28;20686;-78
2023/06/11 12:18:16;;;;;;;7.83;5.27;;;27.70;92.80;;;;;;4961739;28;20202;-80
2023/06/11 12:20:43;;;;;;;7.33;6.63;;;27.50;92.60;;;;;;4962324;28;20257;-79
2023/06/11 12:23:12;;;;;;;7.43;6.83;;;27.50;92.60;;;;;;4982191;28;20236;-82
2023/06/11 12:25:42;;;;;;;7.63;6.93;;;27.70;92.60;;;;;;4966063;28;20273;-77
2023/06/11 12:28:08;;;;;;;7.40;6.80;;;27.50;92.40;;;;;;4958699;28;20229;-77
2023/06/11 12:30:36;;;;;;;6.27;5.67;;;27.50;92.80;;;;;;4961595;28;20202;-77
2023/06/11 12:33:03;;;;;;;7.10;6.13;;;27.40;92.30;;;;;;4962842;28;20215;-80
2023/06/11 12:35:30;;;;;;;8.03;7.27;;;27.30;92.20;;;;;;4983819;28;20217;-79
2023/06/11 12:37:58;;;;;;;7.30;6.77;;;27.20;92.00;;;;;;4970448;28;20213;-78
2023/06/11 12:40:27;;;;;;;5.43;4.83;;;27.20;92.00;;;;;;4960182;28;20575;-78
2023/06/11 12:42:56;;;;;;;4.70;4.30;;;27.10;92.70;;;;;;4962551;28;20226;-78
2023/06/11 12:45:24;;;;;;;8.50;7.10;;;26.90;92.20;;;;;;4958356;28;20266;-79
2023/06/11 12:47:52;;;;;;;8.13;4.57;;;26.90;92.00;;;;;;4958288;28;20202;-79
2023/06/11 12:50:19;;;;;;;5.87;4.37;;;26.90;91.80;;;;;;4959272;28;20560;-79
2023/06/11 12:52:45;;;;;;;6.23;4.00;;;26.90;91.30;;;;;;4967546;28;20643;-78
2023/06/11 12:55:12;;;;;;;4.33;3.93;;;26.90;91.60;;;;;;4961488;28;20226;-77
2023/06/11 12:57:39;;;;;;;7.57;6.87;;;26.80;91.30;;;;;;4956932;28;20232;-77
2023/06/11 13:00:08;;;;;;;7.53;6.83;;;26.90;91.90;;;;;;4967105;28;20194;-78